Time;durP1;ratioP1;P1;durP2;ratioP2;P2;SDS_P1;SDS_P2;PMS_P1;PMS_P2;Temp;Humidity;BMP_temperature;BMP_pressure;BME280_temperature;BME280_humidity;BME280_pressure;Samples;Min_cycle;Max_cycle;Signal;HPM_P1;HPM_P2
2022/10/25 00:01:31;;;;;;;8.43;3.17;;;;;;;14.01;97.27;100585.47;5004706;28;20055;-81
2022/10/25 00:03:58;;;;;;;10.68;2.88;;;;;;;14.10;97.32;100598.38;5004691;28;20086;-80
2022/10/25 00:06:26;;;;;;;7.70;2.58;;;;;;;14.05;97.38;100592.84;5003930;28;20105;-81
2022/10/25 00:08:53;;;;;;;14.07;3.30;;;;;;;14.08;97.38;100589.03;5003828;28;20140;-81
2022/10/25 00:11:21;;;;;;;7.97;2.78;;;;;;;14.11;97.25;100597.38;5000941;28;20102;-79
2022/10/25 00:13:49;;;;;;;10.45;3.00;;;;;;;14.07;97.23;100603.19;4999651;28;20050;-79
2022/10/25 00:16:19;;;;;;;6.85;2.90;;;;;;;14.04;97.17;100596.47;4999902;28;20051;-82
2022/10/25 00:18:46;;;;;;;10.93;3.03;;;;;;;14.07;97.42;100604.00;5003477;28;20088;-82
2022/10/25 00:21:13;;;;;;;7.25;2.75;;;;;;;14.09;97.33;100609.09;5004604;28;20082;-82
2022/10/25 00:23:42;;;;;;;8.93;2.83;;;;;;;14.01;97.48;100607.34;5004238;28;20374;-82
2022/10/25 00:26:10;;;;;;;7.50;3.08;;;;;;;13.93;97.87;100596.88;5004548;28;20066;-81
2022/10/25 00:28:38;;;;;;;9.77;3.13;;;;;;;13.87;98.07;100602.84;5002614;28;20134;-80
2022/10/25 00:31:06;;;;;;;11.10;2.90;;;;;;;13.88;98.42;100604.50;5002828;28;20061;-81
2022/10/25 00:33:34;;;;;;;9.70;3.78;;;;;;;13.90;98.36;100610.41;5005492;28;20141;-81
2022/10/25 00:36:04;;;;;;;12.02;3.40;;;;;;;13.96;98.03;100604.44;5007155;28;20413;-81
2022/10/25 00:38:31;;;;;;;14.02;3.33;;;;;;;13.99;98.05;100604.06;5006589;28;20084;-82
2022/10/25 00:41:00;;;;;;;12.98;4.13;;;;;;;13.99;98.00;100609.34;5003605;28;20054;-82
2022/10/25 00:43:33;;;;;;;9.20;3.10;;;;;;;14.03;97.85;100607.97;5002356;28;20113;-82
2022/10/25 00:46:01;;;;;;;10.18;2.97;;;;;;;14.06;97.66;100607.63;5006495;28;20141;-82
2022/10/25 00:48:29;;;;;;;6.40;2.97;;;;;;;14.03;97.58;100610.63;5008460;28;20098;-82
2022/10/25 00:50:56;;;;;;;9.40;3.20;;;;;;;14.00;97.75;100610.97;5010457;28;20058;-81
2022/10/25 00:53:28;;;;;;;9.15;2.95;;;;;;;14.01;97.81;100617.88;5006566;28;20086;-81
2022/10/25 00:56:03;;;;;;;6.32;2.75;;;;;;;13.92;98.08;100621.56;5006457;28;20046;-81
2022/10/25 00:58:33;;;;;;;7.78;2.83;;;;;;;14.01;97.93;100623.13;5005918;28;20137;-81
2022/10/25 01:01:00;;;;;;;10.35;3.58;;;;;;;14.03;97.72;100629.03;5004544;28;20050;-82
2022/10/25 01:03:27;;;;;;;6.45;2.90;;;;;;;13.99;97.63;100621.66;5004710;28;20129;-83
2022/10/25 01:05:55;;;;;;;11.40;3.08;;;;;;;14.05;97.31;100619.16;5004484;28;20141;-83
2022/10/25 01:08:22;;;;;;;10.98;3.50;;;;;;;14.01;97.47;100628.38;5003567;28;20061;-83
2022/10/25 01:10:50;;;;;;;8.45;2.85;;;;;;;14.05;97.17;100624.41;5004261;28;20122;-83
2022/10/25 01:13:18;;;;;;;9.15;2.97;;;;;;;13.99;97.31;100630.38;5007341;28;20096;-82
2022/10/25 01:15:59;;;;;;;8.88;2.95;;;;;;;14.03;97.13;100636.09;5007176;28;20058;-82
2022/10/25 01:18:35;;;;;;;5.60;2.67;;;;;;;14.00;97.18;100637.28;5007282;28;20084;-83
2022/10/25 01:21:37;;;;;;;7.47;2.90;;;;;;;13.99;97.40;100640.09;5006590;28;20107;-83
2022/10/25 01:24:33;;;;;;;6.10;2.42;;;;;;;13.95;97.28;100631.72;5006925;28;20058;-83
2022/10/25 01:27:15;;;;;;;11.18;2.60;;;;;;;13.89;97.27;100635.88;4992838;28;20050;-82
2022/10/25 01:30:07;;;;;;;10.93;2.80;;;;;;;13.93;97.65;100639.78;5005923;28;20111;-82
2022/10/25 01:32:43;;;;;;;7.68;2.90;;;;;;;13.93;97.67;100636.34;5006728;28;20054;-82
2022/10/25 01:35:17;;;;;;;11.10;2.92;;;;;;;13.95;97.56;100647.50;5006399;28;20569;-82
2022/10/25 01:37:56;;;;;;;11.30;2.65;;;;;;;13.89;97.57;100638.50;5005919;28;20042;-81
2022/10/25 01:40:30;;;;;;;8.65;3.20;;;;;;;13.88;97.75;100636.06;5006881;28;20065;-82
2022/10/25 01:43:07;;;;;;;8.80;2.67;;;;;;;13.90;97.96;100641.97;5008009;28;20093;-83
2022/10/25 01:45:40;;;;;;;5.55;2.60;;;;;;;13.83;98.16;100641.03;5004574;28;20133;-82
2022/10/25 01:48:14;;;;;;;9.57;2.60;;;;;;;13.84;98.34;100643.47;5001861;28;20089;-82
2022/10/25 01:50:45;;;;;;;10.55;2.92;;;;;;;13.85;98.49;100644.31;5002682;28;20137;-82
2022/10/25 01:53:12;;;;;;;10.40;3.25;;;;;;;13.96;98.26;100651.78;5001444;28;20148;-82
2022/10/25 01:55:48;;;;;;;9.40;2.85;;;;;;;13.92;98.23;100655.75;5004299;28;20070;-83
2022/10/25 01:58:26;;;;;;;8.07;2.90;;;;;;;13.86;98.30;100652.00;5004010;28;20073;-82
2022/10/25 02:01:02;;;;;;;10.32;3.38;;;;;;;13.83;98.59;100652.38;5005554;28;20085;-83
2022/10/25 02:03:38;;;;;;;6.68;3.05;;;;;;;13.81;98.83;100661.44;5005984;28;20047;-82
2022/10/25 02:06:17;;;;;;;7.93;2.70;;;;;;;13.77;99.07;100657.50;5005392;28;20081;-83
2022/10/25 02:08:48;;;;;;;7.70;2.85;;;;;;;13.80;98.96;100657.97;5003444;28;20073;-82
2022/10/25 02:11:22;;;;;;;12.13;3.40;;;;;;;13.75;99.13;100655.06;5008934;28;20093;-81
2022/10/25 02:13:59;;;;;;;9.93;3.58;;;;;;;13.79;99.08;100661.59;5011347;28;20050;-83
2022/10/25 02:16:28;;;;;;;6.50;2.60;;;;;;;13.78;98.71;100653.88;5006634;28;20054;-82
2022/10/25 02:19:01;;;;;;;8.85;2.92;;;;;;;13.66;99.41;100650.88;4999954;28;20132;-83
2022/10/25 02:21:28;;;;;;;;;;;;;;;13.64;99.67;100655.50;5000953;28;20124;-83
2022/10/25 02:23:59;;;;;;;7.40;3.13;;;;;;;13.58;100.00;100661.44;4999462;28;19992;-84
2022/10/25 02:26:27;;;;;;;7.05;3.20;;;;;;;13.54;100.00;100652.28;4998074;28;20054;-83
2022/10/25 02:28:55;;;;;;;10.52;3.20;;;;;;;13.48;100.00;100659.03;4998695;28;20050;-83
2022/10/25 02:31:24;;;;;;;8.32;2.67;;;;;;;13.46;100.00;100654.94;5002649;28;20050;-82
2022/10/25 02:33:51;;;;;;;10.05;3.17;;;;;;;13.43;100.00;100656.09;5006437;28;20509;-81
2022/10/25 02:36:22;;;;;;;11.20;2.97;;;;;;;13.36;100.00;100663.03;5004681;28;20133;-82
2022/10/25 02:38:50;;;;;;;7.20;2.67;;;;;;;13.31;100.00;100662.75;5001886;28;20106;-82
2022/10/25 02:41:18;;;;;;;13.35;3.58;;;;;;;13.30;100.00;100658.47;5004551;28;20096;-83
2022/10/25 02:43:44;;;;;;;10.60;2.83;;;;;;;13.29;100.00;100681.31;5005337;28;20500;-84
2022/10/25 02:46:13;;;;;;;7.22;2.83;;;;;;;13.29;100.00;100675.25;5018493;23;20038;-79
2022/10/25 02:48:40;;;;;;;8.50;2.95;;;;;;;13.34;100.00;100678.16;4998501;28;20147;-79
2022/10/25 02:51:08;;;;;;;8.25;2.72;;;;;;;13.36;100.00;100667.47;4999957;28;20133;-79
2022/10/25 02:53:36;;;;;;;8.77;2.80;;;;;;;13.39;100.00;100669.78;4999305;28;20145;-80
2022/10/25 02:56:05;;;;;;;11.05;3.17;;;;;;;13.40;100.00;100671.41;4998841;28;20424;-81
2022/10/25 02:58:34;;;;;;;11.25;3.60;;;;;;;13.48;100.00;100680.06;4997231;28;20109;-80
2022/10/25 03:01:01;;;;;;;7.50;3.00;;;;;;;13.50;100.00;100677.25;4996532;28;20050;-80
2022/10/25 03:03:28;;;;;;;6.57;2.92;;;;;;;13.51;100.00;100669.22;4997370;28;20140;-81
2022/10/25 03:05:55;;;;;;;10.52;2.88;;;;;;;13.51;100.00;100676.28;4995140;28;20568;-80
2022/10/25 03:08:22;;;;;;;6.28;3.63;;;;;;;13.50;100.00;100682.53;4996469;28;20122;-80
2022/10/25 03:10:50;;;;;;;9.60;3.75;;;;;;;13.44;100.00;100683.22;4996380;28;20114;-81
2022/10/25 03:13:17;;;;;;;9.25;2.85;;;;;;;13.42;100.00;100679.94;4996197;28;20213;-79
2022/10/25 03:15:44;;;;;;;6.93;2.80;;;;;;;13.42;100.00;100685.19;4997879;28;20077;-79
2022/10/25 03:18:11;;;;;;;8.18;3.10;;;;;;;13.37;100.00;100690.16;4997978;28;20046;-78
2022/10/25 03:20:37;;;;;;;6.32;3.03;;;;;;;13.43;100.00;100692.09;4995629;28;20129;-79
2022/10/25 03:23:04;;;;;;;11.40;3.30;;;;;;;13.57;100.00;100691.34;4979083;28;20072;-78
2022/10/25 03:25:31;;;;;;;9.77;3.13;;;;;;;13.59;100.00;100686.75;4980587;28;20133;-79
2022/10/25 03:28:00;;;;;;;8.20;3.42;;;;;;;13.65;100.00;100695.75;4967425;28;20488;-79
2022/10/25 03:30:26;;;;;;;9.05;3.20;;;;;;;13.63;100.00;100697.72;4967384;28;20516;-79
2022/10/25 03:32:53;;;;;;;7.65;2.95;;;;;;;13.66;100.00;100682.44;4982921;28;20090;-79
2022/10/25 03:35:20;;;;;;;6.55;3.33;;;;;;;13.70;99.87;100698.69;4983204;28;20146;-80
2022/10/25 03:37:47;;;;;;;7.03;2.67;;;;;;;13.69;99.82;100700.50;4983551;28;20134;-80
2022/10/25 03:40:14;;;;;;;11.10;3.33;;;;;;;13.67;100.00;100706.91;4983181;28;20061;-79
2022/10/25 03:42:41;;;;;;;8.38;3.50;;;;;;;13.75;99.64;100702.41;4983439;28;20137;-79
2022/10/25 03:45:10;;;;;;;9.18;3.03;;;;;;;13.78;99.67;100706.50;4995471;28;20106;-81
2022/10/25 03:47:37;;;;;;;9.15;3.90;;;;;;;13.71;100.00;100695.84;4964418;28;20074;-80
2022/10/25 03:50:05;;;;;;;18.38;3.58;;;;;;;13.81;100.00;100721.91;4964566;28;20174;-80
2022/10/25 03:52:31;;;;;;;16.23;4.22;;;;;;;13.71;100.00;100722.13;4980445;28;20101;-80
2022/10/25 03:54:58;;;;;;;13.05;3.72;;;;;;;13.55;100.00;100738.03;5003649;28;20105;-78
2022/10/25 03:57:25;;;;;;;13.18;3.95;;;;;;;13.46;100.00;100739.88;5006405;28;20118;-80
2022/10/25 03:59:51;;;;;;;9.55;4.60;;;;;;;13.41;100.00;100731.69;5002951;28;20051;-78
2022/10/25 04:02:19;;;;;;;9.88;4.13;;;;;;;13.35;100.00;100727.13;4985912;28;20079;-79
2022/10/25 04:04:46;;;;;;;11.30;4.40;;;;;;;13.27;100.00;100725.34;4984657;28;20054;-80
2022/10/25 04:07:12;;;;;;;16.13;4.40;;;;;;;13.24;100.00;100727.50;4982042;28;20110;-81
2022/10/25 04:09:39;;;;;;;15.45;5.40;;;;;;;13.21;100.00;100730.50;4980338;28;20114;-81
2022/10/25 04:12:06;;;;;;;14.82;4.63;;;;;;;13.16;100.00;100732.81;4979258;28;20134;-81
2022/10/25 04:14:32;;;;;;;10.20;4.00;;;;;;;13.14;100.00;100734.75;4978076;28;20133;-81
2022/10/25 04:16:59;;;;;;;13.00;4.90;;;;;;;13.13;100.00;100739.19;4991752;28;20141;-81
2022/10/25 04:19:27;;;;;;;12.80;4.72;;;;;;;13.12;100.00;100742.81;4995935;28;20137;-80
2022/10/25 04:21:54;;;;;;;13.95;4.63;;;;;;;13.07;100.00;100733.78;5001416;28;20093;-82
2022/10/25 04:24:21;;;;;;;13.25;5.00;;;;;;;13.07;100.00;100744.28;4983028;28;20074;-81
2022/10/25 04:26:48;;;;;;;10.45;4.53;;;;;;;13.06;100.00;100737.41;4980323;28;20105;-79
2022/10/25 04:29:16;;;;;;;14.30;4.70;;;;;;;13.08;100.00;100740.69;4981579;28;20552;-81
2022/10/25 04:31:42;;;;;;;11.70;4.85;;;;;;;13.02;100.00;100742.16;4997656;28;20169;-81
2022/10/25 04:34:09;;;;;;;12.77;5.28;;;;;;;13.06;100.00;100753.16;5000522;28;20101;-81
2022/10/25 04:36:37;;;;;;;13.50;5.00;;;;;;;13.05;100.00;100746.25;4983869;28;20057;-81
2022/10/25 04:39:04;;;;;;;8.77;5.05;;;;;;;13.01;100.00;100758.09;4997300;28;20050;-81
2022/10/25 04:41:31;;;;;;;13.82;5.25;;;;;;;13.03;100.00;100756.94;5003746;28;20129;-79
2022/10/25 04:43:58;;;;;;;11.30;4.65;;;;;;;13.05;100.00;100765.47;5002528;28;20478;-81
2022/10/25 04:46:24;;;;;;;9.35;4.50;;;;;;;13.12;100.00;100768.25;4992018;28;20138;-81
2022/10/25 04:48:51;;;;;;;10.07;3.90;;;;;;;13.15;100.00;100773.16;4985128;28;20485;-82
2022/10/25 04:51:17;;;;;;;14.82;4.80;;;;;;;13.22;100.00;100779.41;4983854;28;20138;-84
2022/10/25 04:53:45;;;;;;;10.02;4.10;;;;;;;13.23;100.00;100771.34;4992270;28;20534;-81
2022/10/25 04:56:13;;;;;;;14.15;4.63;;;;;;;13.24;100.00;100761.66;5004236;28;20062;-82
2022/10/25 04:58:40;;;;;;;14.43;4.35;;;;;;;13.23;100.00;100760.03;5002311;28;20061;-81
2022/10/25 05:01:09;;;;;;;9.98;4.57;;;;;;;13.20;100.00;100768.25;5001191;28;20109;-84
2022/10/25 05:03:36;;;;;;;13.57;4.75;;;;;;;13.22;100.00;100764.47;5003479;28;20101;-81
2022/10/25 05:06:08;;;;;;;15.43;5.35;;;;;;;13.20;100.00;100771.72;5001785;28;20425;-81
2022/10/25 05:08:34;;;;;;;16.23;5.30;;;;;;;13.15;100.00;100766.09;4999588;28;20084;-80
2022/10/25 05:11:02;;;;;;;7.43;4.53;;;;;;;13.17;100.00;100768.59;4999851;28;20097;-80
2022/10/25 05:13:32;;;;;;;12.88;5.40;;;;;;;13.17;100.00;100769.41;5002583;28;20073;-82
2022/10/25 05:15:59;;;;;;;12.88;4.50;;;;;;;13.20;100.00;100776.16;4999544;28;20126;-82
2022/10/25 05:18:26;;;;;;;15.85;5.28;;;;;;;13.20;100.00;100776.97;5007545;28;20392;-81
2022/10/25 05:20:53;;;;;;;10.43;5.00;;;;;;;13.20;100.00;100765.63;5003228;28;20090;-82
2022/10/25 05:23:21;;;;;;;10.25;4.85;;;;;;;13.19;100.00;100777.13;5000841;28;20214;-81
2022/10/25 05:25:47;;;;;;;13.77;5.13;;;;;;;13.14;100.00;100774.97;5001942;28;20086;-81
2022/10/25 05:28:16;;;;;;;15.95;4.63;;;;;;;13.13;100.00;100783.84;4971462;28;20126;-79
2022/10/25 05:30:43;;;;;;;11.82;5.10;;;;;;;13.03;100.00;100777.97;4977915;28;20115;-78
2022/10/25 05:33:10;;;;;;;10.10;4.65;;;;;;;12.99;100.00;100781.91;4997507;28;20117;-78
2022/10/25 05:35:36;;;;;;;10.18;4.75;;;;;;;12.95;100.00;100783.22;4998898;28;20068;-78
2022/10/25 05:38:03;;;;;;;10.15;4.45;;;;;;;12.89;100.00;100783.88;5000499;28;20122;-79
2022/10/25 05:40:30;;;;;;;16.20;4.90;;;;;;;12.87;100.00;100783.25;4980320;28;20138;-79
2022/10/25 05:42:56;;;;;;;13.07;4.95;;;;;;;12.74;100.00;100783.78;4981994;28;20505;-79
2022/10/25 05:45:25;;;;;;;12.20;5.20;;;;;;;12.64;100.00;100780.50;4983331;28;20054;-81
2022/10/25 05:47:52;;;;;;;11.75;4.55;;;;;;;12.53;100.00;100799.19;5001589;28;20120;-81
2022/10/25 05:50:19;;;;;;;9.95;4.43;;;;;;;12.40;100.00;100785.75;5001774;28;20042;-80
2022/10/25 05:52:45;;;;;;;11.20;4.85;;;;;;;12.38;100.00;100796.41;5002457;28;20129;-78
2022/10/25 05:55:12;;;;;;;14.45;4.78;;;;;;;12.38;100.00;100801.66;4989070;28;20070;-81
2022/10/25 05:57:38;;;;;;;8.65;4.97;;;;;;;12.36;100.00;100802.78;4991784;28;20129;-83
2022/10/25 06:00:06;;;;;;;10.65;5.93;;;;;;;12.28;100.00;100801.00;4994711;28;20110;-81
2022/10/25 06:02:35;;;;;;;11.15;4.82;;;;;;;12.23;100.00;100812.00;5002226;28;20096;-80
2022/10/25 06:05:02;;;;;;;22.83;11.15;;;;;;;12.21;100.00;100818.38;4999528;28;20050;-79
2022/10/25 06:07:29;;;;;;;18.83;9.73;;;;;;;12.14;100.00;100820.00;4984272;28;20198;-79
2022/10/25 06:09:55;;;;;;;10.77;5.60;;;;;;;12.06;100.00;100812.94;4991866;28;20081;-81
2022/10/25 06:12:22;;;;;;;23.25;5.63;;;;;;;12.09;100.00;100827.53;4999884;28;20054;-79
2022/10/25 06:14:48;;;;;;;13.80;6.28;;;;;;;12.08;100.00;100825.91;4997922;28;20046;-79
2022/10/25 06:17:15;;;;;;;12.45;5.30;;;;;;;12.04;100.00;100820.16;4982335;28;20057;-85
2022/10/25 06:19:43;;;;;;;12.82;5.00;;;;;;;12.03;100.00;100823.75;4978916;28;20114;-82
2022/10/25 06:22:09;;;;;;;12.45;5.53;;;;;;;11.99;100.00;100832.91;4980380;28;20085;-83
2022/10/25 06:24:36;;;;;;;10.95;4.95;;;;;;;11.99;100.00;100822.44;4981348;28;20078;-84
2022/10/25 06:27:03;;;;;;;14.95;5.22;;;;;;;12.00;100.00;100836.38;4980376;28;20059;-81
2022/10/25 06:29:29;;;;;;;11.30;4.75;;;;;;;11.96;100.00;100841.09;4979302;28;20114;-82
2022/10/25 06:31:56;;;;;;;12.20;4.60;;;;;;;12.02;100.00;100837.84;4980672;28;20057;-83
2022/10/25 06:34:23;;;;;;;15.52;5.82;;;;;;;12.04;100.00;100845.56;4979820;28;20046;-82
2022/10/25 06:36:50;;;;;;;14.40;4.78;;;;;;;12.03;100.00;100849.97;4979299;28;20110;-82
2022/10/25 06:39:17;;;;;;;18.63;5.82;;;;;;;12.04;100.00;100859.50;4982711;28;20793;-81
2022/10/25 06:41:44;;;;;;;15.73;7.32;;;;;;;12.08;100.00;100863.44;4985396;28;20081;-82
2022/10/25 06:44:10;;;;;;;15.38;5.78;;;;;;;12.21;100.00;100869.06;4985636;28;20142;-80
2022/10/25 06:46:38;;;;;;;10.77;4.22;;;;;;;12.28;100.00;100874.47;4985351;28;20109;-81
2022/10/25 06:49:05;;;;;;;11.57;5.05;;;;;;;12.28;100.00;100882.34;4983933;28;20071;-80
2022/10/25 06:51:33;;;;;;;10.60;5.38;;;;;;;12.27;100.00;100884.16;4984211;28;20051;-82
2022/10/25 06:54:04;;;;;;;11.25;4.93;;;;;;;12.40;100.00;100880.22;4984581;28;20054;-82
2022/10/25 06:56:31;;;;;;;12.98;5.60;;;;;;;12.41;100.00;100882.69;4984984;28;20050;-80
2022/10/25 06:58:58;;;;;;;12.68;4.60;;;;;;;12.45;100.00;100891.06;4987412;28;20059;-82
2022/10/25 07:01:25;;;;;;;10.20;4.07;;;;;;;12.54;100.00;100893.53;4987826;28;20054;-85
2022/10/25 07:03:53;;;;;;;9.63;4.32;;;;;;;12.55;100.00;100892.56;4986699;28;20086;-84
2022/10/25 07:06:24;;;;;;;10.90;4.65;;;;;;;12.58;100.00;100899.28;4984756;28;20073;-81
2022/10/25 07:08:54;;;;;;;13.45;5.72;;;;;;;12.55;100.00;100903.06;4984255;28;20183;-82
2022/10/25 07:11:23;;;;;;;13.60;4.72;;;;;;;12.63;100.00;100900.44;4979896;28;20054;-82
2022/10/25 07:13:50;;;;;;;8.18;3.92;;;;;;;12.67;100.00;100890.44;4983558;28;20373;-83
2022/10/25 07:16:18;;;;;;;11.55;4.38;;;;;;;13.00;100.00;100911.44;4981570;28;20474;-83
2022/10/25 07:18:45;;;;;;;10.48;4.40;;;;;;;13.20;100.00;100903.09;4988250;28;20154;-83
2022/10/25 07:21:14;;;;;;;12.25;4.90;;;;;;;13.29;100.00;100919.63;5000415;28;20145;-81
2022/10/25 07:23:41;;;;;;;13.60;4.88;;;;;;;13.23;100.00;100915.06;4999881;28;20166;-81
2022/10/25 07:26:09;;;;;;;11.63;4.30;;;;;;;13.24;100.00;100914.06;4999368;28;20046;-80
2022/10/25 07:28:37;;;;;;;48.15;30.17;;;;;;;13.26;100.00;100920.78;4998942;28;20082;-81
2022/10/25 07:31:03;;;;;;;22.13;12.98;;;;;;;13.53;100.00;100919.59;4992198;28;20513;-79
2022/10/25 07:33:31;;;;;;;11.48;5.50;;;;;;;13.69;100.00;100923.19;4996319;28;20042;-79
2022/10/25 07:35:58;;;;;;;11.82;4.35;;;;;;;13.94;100.00;100927.38;4981065;28;20057;-80
2022/10/25 07:38:25;;;;;;;10.23;4.25;;;;;;;14.32;100.00;100930.97;4980703;28;20058;-80
2022/10/25 07:40:56;;;;;;;9.00;4.30;;;;;;;15.08;100.00;100926.69;4993424;28;20121;-80
2022/10/25 07:43:22;;;;;;;8.55;3.85;;;;;;;15.74;100.00;100935.59;5002049;28;20482;-83
2022/10/25 07:45:51;;;;;;;7.10;3.80;;;;;;;16.34;95.62;100931.88;5001745;28;20082;-82
2022/10/25 07:48:18;;;;;;;9.35;3.60;;;;;;;16.83;92.50;100935.47;5002307;28;20070;-84
2022/10/25 07:50:44;;;;;;;6.57;3.35;;;;;;;16.83;90.44;100919.59;5003361;28;20497;-84
2022/10/25 07:53:11;;;;;;;8.25;4.45;;;;;;;16.59;91.27;100933.16;4989661;28;20509;-81
2022/10/25 07:55:38;;;;;;;10.55;4.63;;;;;;;16.39;92.00;100932.97;4992650;28;20129;-81
2022/10/25 07:58:06;;;;;;;8.07;3.75;;;;;;;16.34;92.19;100929.22;5003720;28;20061;-82
2022/10/25 08:00:32;;;;;;;9.35;3.90;;;;;;;16.06;93.46;100935.22;5001537;28;20491;-82
2022/10/25 08:03:05;;;;;;;9.68;3.63;;;;;;;15.90;94.41;100935.41;5003522;28;20105;-82
2022/10/25 08:05:31;;;;;;;8.80;3.75;;;;;;;15.57;95.60;100927.06;5004797;28;20122;-83
2022/10/25 08:07:58;;;;;;;11.35;4.13;;;;;;;15.47;96.77;100935.19;5008143;28;20072;-82
2022/10/25 08:10:25;;;;;;;10.80;3.38;;;;;;;15.68;95.30;100931.03;5009161;28;20085;-81
2022/10/25 08:12:52;;;;;;;7.10;3.70;;;;;;;15.32;95.71;100936.16;5011440;28;20088;-81
2022/10/25 08:15:18;;;;;;;10.43;3.65;;;;;;;15.38;96.58;100938.91;5009600;28;20062;-84
2022/10/25 08:17:45;;;;;;;15.82;4.20;;;;;;;15.48;97.13;100933.38;5011116;28;20058;-81
2022/10/25 08:20:13;;;;;;;9.90;3.95;;;;;;;15.47;97.83;100929.09;5008219;28;20081;-83
2022/10/25 08:22:40;;;;;;;10.13;3.90;;;;;;;15.49;97.64;100938.47;4989286;28;20074;-82
2022/10/25 08:25:07;;;;;;;12.38;4.13;;;;;;;15.60;97.18;100938.03;4993960;28;20142;-83
2022/10/25 08:27:34;;;;;;;9.50;4.00;;;;;;;15.63;96.88;100936.03;4976337;28;20046;-80
2022/10/25 08:30:00;;;;;;;10.88;4.50;;;;;;;15.83;96.73;100942.41;4974992;28;20086;-80
2022/10/25 08:32:27;;;;;;;12.80;4.20;;;;;;;15.79;96.05;100933.22;4982910;28;20074;-83
2022/10/25 08:34:53;;;;;;;10.32;3.97;;;;;;;15.70;96.34;100934.31;5002773;28;20086;-82
2022/10/25 08:37:21;;;;;;;7.97;3.67;;;;;;;15.75;95.61;100929.31;5011765;28;20074;-82
2022/10/25 08:39:48;;;;;;;9.00;3.95;;;;;;;15.72;96.38;100940.22;4999049;28;20050;-80
2022/10/25 08:42:22;;;;;;;8.55;3.50;;;;;;;15.68;96.44;100939.78;4992495;28;20157;-83
2022/10/25 08:44:57;;;;;;;6.28;3.40;;;;;;;15.78;96.88;100942.13;4990622;28;20086;-82
2022/10/25 08:47:30;;;;;;;9.15;4.35;;;;;;;15.91;95.91;100939.69;5007573;23;20049;-79
2022/10/25 08:50:01;;;;;;;9.95;3.40;;;;;;;16.00;96.59;100935.94;4994519;28;20046;-80
2022/10/25 08:52:33;;;;;;;9.90;3.58;;;;;;;15.81;95.18;100928.59;4994380;28;20085;-79
2022/10/25 08:55:03;;;;;;;11.27;3.73;;;;;;;15.99;94.46;100938.78;4983780;28;20154;-80
2022/10/25 08:57:33;;;;;;;9.82;3.53;;;;;;;15.99;94.08;100950.16;4975994;28;20146;-79
2022/10/25 09:00:06;;;;;;;12.05;3.42;;;;;;;15.88;94.15;100945.34;4975635;28;20093;-79
2022/10/25 09:02:36;;;;;;;;;;;;;;;15.94;94.79;100960.44;4995550;28;20449;-79
2022/10/25 09:05:04;;;;;;;12.68;3.47;;;;;;;15.94;93.97;100947.25;4996500;28;19968;-79
2022/10/25 09:07:45;;;;;;;9.50;3.53;;;;;;;16.18;93.70;100952.19;5000330;28;20110;-80
2022/10/25 09:10:21;;;;;;;10.55;4.22;;;;;;;16.31;93.51;100956.81;4999746;28;20058;-79
2022/10/25 09:12:56;;;;;;;8.68;4.40;;;;;;;16.48;92.89;100947.69;5000375;28;20110;-80
2022/10/25 09:15:38;;;;;;;7.65;3.35;;;;;;;16.53;91.54;100963.81;4999389;28;20127;-78
2022/10/25 09:18:15;;;;;;;12.30;3.95;;;;;;;16.31;91.61;100961.28;4999116;28;20141;-79
2022/10/25 09:20:48;;;;;;;14.35;4.03;;;;;;;16.59;91.73;100970.94;4999665;28;20093;-80
2022/10/25 09:23:29;;;;;;;7.45;3.60;;;;;;;16.58;90.40;100974.59;4998619;28;20553;-80
2022/10/25 09:26:03;;;;;;;11.27;3.97;;;;;;;16.55;90.36;100971.50;4996825;28;20106;-79
2022/10/25 09:28:43;;;;;;;8.65;3.35;;;;;;;16.49;90.55;100982.84;4997297;28;20046;-79
2022/10/25 09:31:13;;;;;;;15.65;3.55;;;;;;;16.26;90.27;100970.59;4997329;28;20074;-79
2022/10/25 09:33:44;;;;;;;12.43;3.38;;;;;;;15.97;91.11;100969.81;4996510;28;20054;-78
2022/10/25 09:36:13;;;;;;;12.53;3.57;;;;;;;16.00;92.12;100980.81;5000646;28;20089;-80
2022/10/25 09:38:47;;;;;;;9.65;3.85;;;;;;;15.93;92.87;100990.47;5003154;28;20101;-80
2022/10/25 09:41:25;;;;;;;10.20;3.60;;;;;;;16.11;92.59;100993.53;5004223;28;20068;-79
2022/10/25 09:44:06;;;;;;;11.35;3.35;;;;;;;16.07;92.65;100986.19;5002385;28;20058;-80
2022/10/25 09:46:37;;;;;;;9.95;4.05;;;;;;;16.23;91.93;100994.72;5002590;28;20061;-80
2022/10/25 09:49:16;;;;;;;6.60;3.20;;;;;;;16.19;91.85;100987.34;5003070;28;20139;-80
2022/10/25 09:52:02;;;;;;;12.40;4.20;;;;;;;16.20;91.71;100991.63;5003145;28;20106;-81
2022/10/25 09:54:40;;;;;;;23.55;5.13;;;;;;;16.20;91.39;100989.81;5002980;28;20069;-81
2022/10/25 09:57:08;;;;;;;10.57;3.60;;;;;;;16.31;91.15;100999.09;5002996;28;20129;-80
2022/10/25 09:59:37;;;;;;;8.60;3.70;;;;;;;16.31;90.96;100990.34;5002368;28;20088;-80
2022/10/25 10:02:12;;;;;;;17.70;3.92;;;;;;;16.34;90.13;101003.19;5002089;28;20201;-79
2022/10/25 10:04:42;;;;;;;32.42;5.97;;;;;;;16.38;89.85;100993.88;5001985;28;20459;-79
2022/10/25 10:07:38;;;;;;;25.50;4.65;;;;;;;16.41;89.42;100993.50;5001150;28;20054;-79
2022/10/25 10:14:04;;;;;;;22.83;4.18;;;;;;;16.36;90.10;101009.09;4966508;28;20062;-78
2022/10/25 10:17:19;;;;;;;8.50;3.40;;;;;;;16.53;89.12;101005.25;5001461;28;20046;-78
2022/10/25 10:20:11;;;;;;;9.43;3.40;;;;;;;16.32;89.09;100997.25;5011454;28;20093;-80
2022/10/25 10:22:44;;;;;;;19.25;4.20;;;;;;;16.39;88.11;101006.09;5010456;28;20057;-80
2022/10/25 10:25:19;;;;;;;14.77;4.05;;;;;;;16.43;88.41;101012.63;5012831;28;20081;-80
2022/10/25 10:27:47;;;;;;;12.02;3.70;;;;;;;16.40;88.83;101007.72;5012573;28;20058;-80
2022/10/25 10:30:29;;;;;;;10.25;3.47;;;;;;;16.45;88.23;101010.63;5012684;28;20040;-80
2022/10/25 10:33:08;;;;;;;7.63;3.00;;;;;;;16.49;88.10;101017.19;5014061;28;20047;-80
2022/10/25 10:35:37;;;;;;;9.98;3.45;;;;;;;16.51;88.09;101009.91;5014099;28;20110;-79
2022/10/25 10:38:29;;;;;;;11.18;3.70;;;;;;;16.54;86.98;101020.09;5013930;28;20159;-79
2022/10/25 10:41:14;;;;;;;7.82;3.63;;;;;;;16.64;88.11;101020.63;5012767;28;20051;-79
2022/10/25 10:43:44;;;;;;;12.80;3.42;;;;;;;16.71;88.12;101010.94;5013868;28;20042;-79
2022/10/25 10:46:24;;;;;;;6.80;3.08;;;;;;;17.11;86.93;101019.28;5014746;28;20058;-79
2022/10/25 10:48:57;;;;;;;12.80;3.92;;;;;;;17.18;85.85;101014.88;5013659;28;20061;-79
2022/10/25 10:51:37;;;;;;;28.13;5.00;;;;;;;17.18;85.48;101012.22;5011325;28;20113;-79
2022/10/25 10:54:23;;;;;;;11.10;3.75;;;;;;;16.81;86.72;101022.03;5012537;28;20126;-78
2022/10/25 10:57:13;;;;;;;10.30;3.22;;;;;;;16.76;87.22;101019.13;5014049;28;20046;-79
2022/10/25 10:59:50;;;;;;;46.17;5.40;;;;;;;16.86;86.74;101021.47;5012930;28;20038;-79
2022/10/25 11:02:26;;;;;;;18.75;3.97;;;;;;;17.23;85.29;101010.66;5011499;28;20050;-78
2022/10/25 11:04:59;;;;;;;11.70;3.40;;;;;;;17.77;83.96;101022.50;5010619;28;20053;-79
2022/10/25 11:07:32;;;;;;;11.65;3.17;;;;;;;17.89;82.70;101026.25;5011439;28;20068;-79
2022/10/25 11:10:27;;;;;;;6.78;3.38;;;;;;;17.83;82.77;101021.72;5011670;28;20120;-77
2022/10/25 11:13:19;;;;;;;12.43;3.00;;;;;;;17.63;81.74;101020.72;5010439;28;20129;-78
2022/10/25 11:16:21;;;;;;;9.15;2.83;;;;;;;17.50;81.52;101011.66;5010119;28;20580;-79
2022/10/25 11:18:58;;;;;;;11.45;3.00;;;;;;;17.55;81.17;101027.78;5009812;28;20100;-79
2022/10/25 11:21:46;;;;;;;13.55;3.15;;;;;;;17.44;80.96;101009.81;5009630;28;20084;-79
2022/10/25 11:24:27;;;;;;;8.52;3.17;;;;;;;17.43;81.25;101008.19;5010112;28;20089;-79
2022/10/25 11:27:06;;;;;;;5.75;3.00;;;;;;;17.46;80.82;101005.16;5011641;28;20062;-79
2022/10/25 11:29:55;;;;;;;8.45;3.10;;;;;;;17.45;80.79;101019.41;5010973;28;20050;-79
2022/10/25 11:32:39;;;;;;;9.95;3.13;;;;;;;17.43;80.30;101010.00;5009527;28;20387;-79
2022/10/25 11:35:20;;;;;;;8.43;3.00;;;;;;;17.40;80.55;101005.91;5010083;28;20056;-79
2022/10/25 11:37:59;;;;;;;9.57;3.15;;;;;;;17.44;79.98;101011.66;5010514;28;20054;-79